KEYWKSPG

Guest
Details From KEYW - Key West Intl
To KSPG - Albert Whitted
Flight Number -
Tags generated
Created
Modified
Stats Distance 203 nm / 376 km
Max Altitude 22,900 ft / 6,980 m
Waypoints 3
Social Downloads 0
Likes 0
Share VATSIM

Download

Looking for another format? Having issues loading an existing format? Contact us
Advertisement - Login to hide

Notes

Basic altitude profile: - Ascent Rate: 2500ft/min - Ascent Speed: 250kts - Cruise Altitude: 35000ft - Cruise Speed: 420kts - Descent Rate: 1500ft/min - Descent Speed: 250kts

Route

KEYW CYY KSPG

ID Type Via Altitude Latitude Longitude Leg Dist Tot Dist Heading (true) Name
O KEYW APT - 0 ft / 0 m 24.55612˚ -81.75955˚ - 0 nm - Key West Intl
CYY VOR - 22,900 ft / 6,980 m 26.15342˚ -81.77811˚ 95 nm 95 nm 359° / 359° CYPRESS VOR-DME
O KSPG APT - 0 ft / 0 m 27.76505˚ -82.62674˚ 106 nm 202 nm 335° / 335° Albert Whitted

Altitude Profile

Advertisement - Login to hide

Weather


0- 5 10 15 20 25 30 35+ Temperature / ° C

Clouds and Precipitation
Forecast for 2018-05-21 18:00 UTC. Updated 9 minutes ago

Ground ~20,000 ft ~40,000 ft Winds

KEYW

Details ICAO KEYW (EYW)
Name Key West Intl
Region United States
Timezone America/New_York (UTC-4.0)
Stats Elevation 2 ft / 1 m (AMSL)
Location 24.556124° -81.759546°
Runways 1
Magnetic Variation 5.592° W

METAR

KEYW 211653Z 13012KT 10SM SCT019 28/24 A3001 RMK AO2 SLP163 T02780239

Decode

TAF

KEYW 211508Z 2115/2212 12011G20KT P6SM VCSH SCT020 BKN050 OVC100 TEMPO 2116/2119 3SM SHRA BKN015 BKN025 BKN035

Decode

Departure Runways

ID Width Length Bearing (true) Bearing (mag) Surface Threshold Offset Overrun Length
09 100 ft / 30 m 4,794 ft / 1,461 m 89.38° 94.97° Asphalt 151 ft / 46 m 0 ft / 0 m
27 100 ft / 30 m 4,794 ft / 1,461 m 269.39° 274.98° Asphalt 151 ft / 46 m 0 ft / 0 m

KSPG

Details ICAO KSPG (SPG)
Name Albert Whitted
Region United States
Timezone America/New_York (UTC-4.0)
Stats Elevation 7 ft / 2 m (AMSL)
Location 27.765051° -82.626745°
Runways 2
Magnetic Variation 5.509° W

METAR

KSPG 211708Z 09003KT 3SM RA BR SCT025 BKN042 OVC055 24/23 A3004 RMK AO2 LTG DSNT E AND SE P0001 T02390233

Decode

TAF

Not found

Destination Runways

ID Width Length Bearing (true) Bearing (mag) Surface Threshold Offset Overrun Length
06 75 ft / 23 m 3,676 ft / 1,120 m 61.97° 67.48° Asphalt 558 ft / 170 m 0 ft / 0 m
18 150 ft / 46 m 2,875 ft / 876 m 179.64° 185.15° Asphalt 0 ft / 0 m 0 ft / 0 m
24 75 ft / 23 m 3,676 ft / 1,120 m 241.98° 247.49° Asphalt 263 ft / 80 m 0 ft / 0 m
36 150 ft / 46 m 2,875 ft / 876 m 359.64° 5.15° Asphalt 0 ft / 0 m 0 ft / 0 m

Popular Alternatives